Time;durP1;ratioP1;P1;durP2;ratioP2;P2;SDS_P1;SDS_P2;PMS_P1;PMS_P2;Temp;Humidity;BMP_temperature;BMP_pressure;BME280_temperature;BME280_humidity;BME280_pressure;Samples;Min_cycle;Max_cycle;Signal;HPM_P1;HPM_P2
2023/01/10 00:00:14;;;;;;;1.00;1.00;;;9.70;61.60;;;8.29;63.13;100334.81;12251366;19;20514;-86
2023/01/10 00:04:16;;;;;;;1.00;1.00;;;9.60;61.50;;;7.94;63.23;100277.66;12251569;19;20357;-85
2023/01/10 00:08:18;;;;;;;1.20;1.10;;;9.70;61.60;;;8.40;63.26;100339.50;12250843;19;20358;-85
2023/01/10 00:16:41;;;;;;;1.10;1.10;;;9.70;61.60;;;8.37;63.20;100334.38;12251181;19;20035;-85
2023/01/10 00:20:46;;;;;;;1.20;1.05;;;9.70;61.60;;;8.43;63.22;100351.50;12248508;19;20548;-86
2023/01/10 00:24:47;;;;;;;1.20;1.10;;;9.70;61.60;;;8.45;63.36;100347.03;12245768;19;20010;-85
2023/01/10 00:28:51;;;;;;;1.08;1.05;;;9.70;61.60;;;8.45;63.44;100347.03;12251116;19;20006;-85
2023/01/10 00:32:52;;;;;;;1.38;1.27;;;9.80;61.60;;;8.50;63.22;100358.88;12247141;19;20026;-86
2023/01/10 00:36:54;;;;;;;0.95;0.93;;;9.80;61.60;;;8.24;63.23;100313.41;12250287;19;20020;-85
2023/01/10 00:40:56;;;;;;;1.00;1.00;;;9.80;61.60;;;8.31;63.43;100325.16;12250146;19;20035;-85
2023/01/10 00:44:58;;;;;;;0.73;0.73;;;9.80;61.60;;;8.54;63.31;100356.97;12245190;19;20010;-86
2023/01/10 00:49:00;;;;;;;1.20;1.10;;;10.10;61.80;;;8.53;63.41;100365.69;12248696;19;20014;-85
2023/01/10 00:53:02;;;;;;;2.58;1.20;;;9.90;61.60;;;8.49;63.48;100369.38;12247632;19;20002;-85
2023/01/10 00:57:04;;;;;;;1.23;1.13;;;9.90;61.60;;;8.64;63.36;100402.41;12249566;19;20017;-85
2023/01/10 01:01:05;;;;;;;1.13;1.02;;;9.90;61.60;;;8.65;63.46;100404.09;12249881;19;20031;-85
2023/01/10 01:05:07;;;;;;;2.95;1.10;;;10.00;61.60;;;8.74;63.24;100428.81;12245706;19;20017;-85
2023/01/10 01:09:09;;;;;;;1.17;1.08;;;10.00;61.60;;;8.72;63.46;100439.31;12248947;19;20544;-85
2023/01/10 01:13:20;;;;;;;0.90;0.90;;;10.00;61.50;;;8.77;63.44;100452.91;12246483;19;20082;-85
2023/01/10 01:17:22;;;;;;;1.27;1.05;;;10.00;61.50;;;8.66;63.44;100430.97;12247294;19;20674;-85
2023/01/10 01:21:27;;;;;;;1.50;1.40;;;10.10;61.50;;;8.78;63.42;100464.19;12247286;19;20010;-85
2023/01/10 01:25:29;;;;;;;2.72;1.63;;;10.00;61.40;;;8.78;63.38;100462.41;12244184;19;20028;-85
2023/01/10 01:29:31;;;;;;;1.58;1.48;;;10.10;61.50;;;8.74;63.45;100466.09;12245725;19;20017;-86
2023/01/10 01:33:32;;;;;;;1.38;1.27;;;10.10;61.50;;;8.60;63.48;100445.97;12243538;19;20026;-85
2023/01/10 01:37:34;;;;;;;1.30;1.20;;;10.10;61.50;;;8.88;63.40;100495.78;12246150;19;20087;-86
2023/01/10 01:45:59;;;;;;;2.88;1.63;;;10.10;61.50;;;8.88;63.37;100507.03;12245088;19;20015;-85
2023/01/10 01:50:02;;;;;;;;;;;10.20;61.60;;;8.83;63.19;100509.03;12246064;19;20038;-85
2023/01/10 01:54:10;;;;;;;1.48;1.38;;;10.20;61.50;;;8.84;63.16;100516.75;12241464;19;19974;-86
2023/01/10 01:58:20;;;;;;;1.50;1.40;;;10.30;61.40;;;8.91;63.39;100532.06;12245445;19;20010;-85
2023/01/10 02:02:33;;;;;;;1.40;1.30;;;10.20;61.20;;;8.95;63.33;100538.81;12242745;19;20019;-85
2023/01/10 02:06:35;;;;;;;1.10;1.10;;;10.20;61.20;;;8.95;63.31;100544.03;12242926;19;20027;-85
2023/01/10 02:10:57;;;;;;;1.75;1.35;;;10.30;61.20;;;8.97;63.41;100547.41;12242938;19;20011;-85
2023/01/10 02:14:59;;;;;;;1.58;1.48;;;10.20;61.20;;;8.93;63.25;100544.09;12238610;19;20354;-85
2023/01/10 02:19:02;;;;;;;2.55;1.60;;;10.30;61.30;;;8.94;63.33;100547.53;12242725;19;20014;-85
2023/01/10 02:23:33;;;;;;;1.73;1.48;;;10.30;61.20;;;9.00;63.23;100562.88;12241828;19;20015;-85
2023/01/10 02:28:14;;;;;;;2.20;1.50;;;10.30;61.20;;;9.00;63.23;100552.44;12239830;19;20035;-85
2023/01/10 02:32:48;;;;;;;1.60;1.50;;;10.30;61.10;;;8.92;63.28;100554.59;12243699;19;20015;-85
2023/01/10 02:37:07;;;;;;;2.10;1.60;;;10.30;61.10;;;8.97;63.40;100570.84;12255241;19;20018;-85
2023/01/10 02:42:12;;;;;;;2.75;1.48;;;10.30;61.00;;;8.93;63.27;100577.94;12255786;19;20022;-85
2023/01/10 02:46:26;;;;;;;1.80;1.70;;;10.20;60.90;;;8.89;63.18;100580.81;12254518;19;20006;-85
2023/01/10 02:50:52;;;;;;;2.08;1.73;;;10.20;60.80;;;8.91;63.14;100586.75;12251091;19;20031;-86
2023/01/10 02:55:00;;;;;;;1.50;1.40;;;10.30;61.00;;;8.96;63.35;100603.81;12251139;19;20006;-85
2023/01/10 02:59:38;;;;;;;1.70;1.60;;;10.20;60.90;;;8.86;63.34;100587.00;12253767;19;20010;-85
2023/01/10 03:04:04;;;;;;;1.50;1.40;;;10.20;61.00;;;8.84;63.16;100594.03;12250861;19;20010;-85
2023/01/10 03:08:20;;;;;;;;;;;10.30;61.10;;;8.98;63.28;100616.78;12254321;19;20018;-85
2023/01/10 03:13:01;;;;;;;1.58;1.30;;;10.30;61.20;;;8.98;63.32;100627.19;12253188;19;19933;-85
2023/01/10 03:17:07;;;;;;;1.55;1.40;;;10.30;61.10;;;8.92;63.42;100609.28;12255322;19;20487;-85
2023/01/10 03:21:11;;;;;;;1.70;1.30;;;10.20;60.90;;;9.01;63.39;100632.25;12253042;19;20018;-85
2023/01/10 03:25:17;;;;;;;5.15;1.60;;;10.20;60.90;;;8.97;63.33;100635.94;12249642;19;20022;-85
2023/01/10 03:29:30;;;;;;;2.88;1.27;;;10.30;61.10;;;8.96;63.15;100644.66;12253620;19;20018;-85
2023/01/10 03:33:33;;;;;;;1.42;1.33;;;10.30;61.00;;;8.97;63.21;100655.00;12248007;19;20015;-85
2023/01/10 03:37:40;;;;;;;1.40;1.30;;;10.20;61.00;;;9.04;63.10;100674.59;12252081;19;20017;-85
2023/01/10 03:42:15;;;;;;;2.15;1.52;;;10.30;61.20;;;9.00;63.15;100672.25;12249047;19;20031;-85
2023/01/10 03:46:32;;;;;;;1.63;1.52;;;10.30;61.20;;;8.99;63.07;100680.97;12250053;19;20477;-85
2023/01/10 03:50:36;;;;;;;1.75;1.25;;;10.30;61.20;;;9.01;63.32;100687.78;12248637;19;20010;-85
2023/01/10 03:54:40;;;;;;;2.38;1.10;;;10.30;61.40;;;8.96;63.26;100684.56;12245522;19;20022;-85
2023/01/10 03:58:42;;;;;;;3.08;1.55;;;10.30;61.40;;;9.09;63.40;100716.06;12250705;19;20014;-85
2023/01/10 04:02:44;;;;;;;1.33;1.23;;;10.30;61.50;;;9.08;63.19;100732.63;12247651;19;20473;-85
2023/01/10 04:06:45;;;;;;;2.60;1.55;;;10.30;61.50;;;9.10;63.33;100736.00;12250281;19;20011;-85
2023/01/10 04:10:50;;;;;;;1.75;1.50;;;10.30;61.50;;;8.84;63.26;100703.41;12250754;19;20017;-85
2023/01/10 04:14:52;;;;;;;1.63;1.42;;;10.30;61.60;;;9.11;63.39;100755.06;12248008;19;20668;-85
2023/01/10 04:18:54;;;;;;;3.28;1.45;;;10.30;61.60;;;8.95;63.12;100742.78;12253379;19;20343;-85
2023/01/10 04:22:55;;;;;;;2.63;1.80;;;10.30;61.70;;;9.09;63.17;100771.59;12247468;19;20074;-87
2023/01/10 04:26:57;;;;;;;3.55;2.22;;;10.30;61.70;;;9.02;63.22;100765.03;12251656;19;20007;-87
2023/01/10 04:30:59;;;;;;;2.17;2.08;;;10.30;61.80;;;9.13;63.37;100790.56;12253779;19;20006;-83
2023/01/10 04:35:01;;;;;;;2.60;1.83;;;10.30;61.80;;;9.02;63.44;100767.63;12246899;19;20469;-83
2023/01/10 04:39:03;;;;;;;2.88;2.17;;;10.40;62.00;;;9.16;63.47;100802.59;12248131;19;20036;-83
2023/01/10 04:43:05;;;;;;;3.75;2.78;;;10.40;62.00;;;9.09;63.43;100799.44;12248604;19;20050;-83
2023/01/10 04:47:07;;;;;;;2.78;2.08;;;10.40;61.90;;;9.07;63.48;100803.84;12248972;19;20031;-83
2023/01/10 04:51:09;;;;;;;2.75;2.33;;;10.40;62.00;;;9.19;63.44;100837.16;12248519;19;20472;-83
2023/01/10 04:55:11;;;;;;;4.60;2.53;;;10.40;62.10;;;9.13;63.49;100824.44;12243950;19;20007;-83
2023/01/10 04:59:12;;;;;;;5.43;2.75;;;10.40;62.00;;;8.94;63.42;100805.34;12248499;19;20010;-83
2023/01/10 05:03:18;;;;;;;8.90;3.42;;;10.40;62.00;;;9.23;63.35;100861.28;12246537;19;20014;-83
2023/01/10 05:07:20;;;;;;;4.28;2.55;;;10.40;62.00;;;9.03;63.30;100836.19;12247259;19;20026;-83
2023/01/10 05:11:22;;;;;;;5.78;3.00;;;10.50;62.20;;;9.15;63.33;100866.84;12247543;19;20028;-85
2023/01/10 05:15:24;;;;;;;5.30;3.17;;;10.40;62.10;;;9.15;63.31;100869.47;12244612;19;20010;-83
2023/01/10 05:19:27;;;;;;;4.10;2.83;;;10.50;62.10;;;9.22;63.33;100880.47;12250014;19;20009;-83
2023/01/10 05:23:28;;;;;;;4.07;2.83;;;10.50;62.10;;;9.14;63.52;100874.75;12242100;19;20010;-83
2023/01/10 05:27:30;;;;;;;3.08;2.60;;;10.50;62.10;;;9.33;63.31;100917.28;12239428;19;20014;-83
2023/01/10 05:31:32;;;;;;;2.53;2.28;;;10.50;62.10;;;9.11;63.31;100878.34;12241940;19;20078;-83
2023/01/10 05:35:34;;;;;;;4.15;2.58;;;10.50;62.00;;;9.18;63.43;100890.19;12242450;19;20014;-84
2023/01/10 05:39:35;;;;;;;4.85;2.40;;;10.60;62.00;;;9.36;63.50;100929.31;12244696;19;20014;-83
2023/01/10 05:43:37;;;;;;;2.40;2.20;;;10.60;62.00;;;9.33;63.37;100929.47;12242987;19;20501;-83
2023/01/10 05:47:39;;;;;;;5.32;2.38;;;10.60;62.00;;;9.27;63.42;100923.63;12246015;19;20021;-83
2023/01/10 05:51:41;;;;;;;2.55;2.35;;;10.60;62.00;;;9.38;63.42;100940.53;12246098;19;20502;-83
2023/01/10 05:55:43;;;;;;;7.07;2.50;;;10.60;62.10;;;9.37;63.39;100951.84;12237830;19;20027;-83
2023/01/10 05:59:45;;;;;;;3.83;2.20;;;10.60;62.30;;;9.38;63.34;100950.94;12243142;19;20010;-83
2023/01/10 06:03:47;;;;;;;3.35;2.05;;;10.60;62.40;;;9.36;63.44;100958.81;12239331;19;20043;-83
2023/01/10 06:07:49;;;;;;;2.33;1.83;;;10.60;62.30;;;9.13;63.40;100933.84;12248812;19;20018;-83
2023/01/10 06:11:50;;;;;;;3.47;2.60;;;10.60;62.40;;;9.38;63.49;100982.22;12255057;19;20026;-83
2023/01/10 06:15:52;;;;;;;4.97;2.75;;;10.60;62.40;;;9.28;63.48;100974.81;12252637;19;20019;-83
2023/01/10 06:19:54;;;;;;;5.60;2.85;;;10.60;62.40;;;9.42;63.53;101007.22;12251967;19;20006;-83
2023/01/10 06:23:56;;;;;;;4.88;1.92;;;10.60;62.40;;;9.34;63.42;101006.72;12250332;19;20028;-83
2023/01/10 06:27:58;;;;;;;2.45;1.90;;;10.60;62.40;;;9.42;63.45;101028.91;12251966;19;20335;-83
2023/01/10 06:32:00;;;;;;;3.42;2.35;;;10.60;62.40;;;9.27;63.40;101011.38;12252340;19;20019;-83
2023/01/10 06:36:02;;;;;;;4.32;2.15;;;10.60;62.40;;;9.37;63.52;101037.84;12249964;19;20077;-83
2023/01/10 06:40:05;;;;;;;3.15;2.25;;;10.60;62.40;;;9.27;63.49;101027.00;12253261;19;20086;-83
2023/01/10 06:44:07;;;;;;;3.38;2.42;;;10.60;62.50;;;9.38;63.34;101056.03;12249413;19;20018;-83
2023/01/10 06:48:09;;;;;;;3.47;2.78;;;10.60;62.60;;;9.37;63.43;101061.31;12253712;19;20018;-83
2023/01/10 06:52:10;;;;;;;6.00;2.78;;;10.60;62.60;;;9.26;63.32;101039.22;12085852;19;3225516;-83
2023/01/10 06:56:12;;;;;;;5.72;2.47;;;10.60;62.60;;;9.40;63.45;101069.03;12252513;19;20014;-83
2023/01/10 07:00:15;;;;;;;3.03;2.47;;;10.60;62.70;;;9.39;63.49;101075.13;12255256;19;20006;-83
2023/01/10 07:04:17;;;;;;;5.32;2.80;;;10.60;62.60;;;9.32;63.36;101069.34;12250453;19;20077;-83
2023/01/10 07:08:19;;;;;;;2.63;2.42;;;10.60;62.50;;;9.23;63.42;101065.38;12257141;19;20037;-83
2023/01/10 07:12:20;;;;;;;5.43;2.50;;;10.60;62.40;;;9.38;63.31;101104.72;12252309;19;20078;-83
2023/01/10 07:16:22;;;;;;;5.63;2.70;;;10.60;62.50;;;9.39;63.45;101103.78;12251671;19;20023;-83
2023/01/10 07:20:25;;;;;;;5.88;3.05;;;10.60;62.40;;;9.40;63.47;101114.16;12254298;19;20011;-83
2023/01/10 07:24:27;;;;;;;5.47;2.78;;;10.60;62.30;;;9.37;63.51;101113.44;12251860;19;20018;-83
2023/01/10 07:28:30;;;;;;;5.30;3.42;;;10.60;62.40;;;9.39;63.33;101114.22;12251834;19;20022;-84
2023/01/10 07:32:33;;;;;;;4.38;2.53;;;10.60;62.30;;;9.42;63.50;101134.94;12253553;19;20019;-84
2023/01/10 07:36:36;;;;;;;4.03;2.65;;;10.70;62.30;;;9.42;63.46;101145.38;12252671;19;20007;-84
2023/01/10 07:40:37;;;;;;;4.88;2.97;;;10.60;62.20;;;9.21;63.53;101119.34;12252965;19;20029;-83
2023/01/10 07:44:39;;;;;;;5.18;3.42;;;10.60;62.20;;;9.31;63.55;101146.66;12249288;19;20366;-84
2023/01/10 07:48:41;;;;;;;6.93;3.72;;;10.60;62.20;;;9.42;63.59;101169.66;12252859;19;20022;-84
2023/01/10 07:52:42;;;;;;;5.82;3.03;;;10.60;62.20;;;9.35;63.33;101159.59;12250053;19;20486;-84
2023/01/10 07:56:46;;;;;;;6.13;3.63;;;10.60;62.10;;;9.41;63.36;101177.56;12250487;19;20086;-84
2023/01/10 08:00:49;;;;;;;5.45;3.10;;;10.60;62.20;;;9.41;63.55;101190.59;12250977;19;21594;-84
2023/01/10 08:04:51;;;;;;;6.07;2.80;;;10.60;62.00;;;9.45;63.37;101199.97;12248867;19;20739;-84
2023/01/10 08:08:53;;;;;;;4.07;3.13;;;10.60;62.10;;;9.27;63.38;101176.41;12252872;19;20014;-84
2023/01/10 08:12:54;;;;;;;6.57;3.03;;;10.60;62.10;;;9.41;63.56;101208.84;12249776;19;20454;-84
2023/01/10 08:16:56;;;;;;;4.65;3.30;;;10.70;62.20;;;9.41;63.59;101214.91;12251866;19;20021;-83
2023/01/10 08:20:59;;;;;;;4.75;3.20;;;10.60;62.10;;;9.45;63.43;101224.31;12249606;19;20035;-84
2023/01/10 08:25:01;;;;;;;6.82;3.15;;;10.70;62.20;;;9.35;63.37;101219.53;12248730;19;20015;-85
2023/01/10 08:29:04;;;;;;;6.85;3.05;;;10.70;62.10;;;9.19;63.44;101199.31;12248135;19;20500;-85
2023/01/10 08:33:07;;;;;;;9.32;3.78;;;10.70;62.10;;;9.27;63.57;101219.84;12248763;19;20031;-86
2023/01/10 08:37:12;;;;;;;4.70;3.10;;;10.70;62.10;;;9.40;63.49;101246.25;12249135;19;20003;-85
2023/01/10 08:41:14;;;;;;;5.22;3.25;;;10.70;62.10;;;9.36;63.63;101240.31;12249463;19;20045;-85
2023/01/10 08:45:16;;;;;;;3.67;3.17;;;10.70;62.10;;;9.46;63.52;101257.25;12247717;19;20032;-86
2023/01/10 08:49:18;;;;;;;5.97;3.45;;;10.80;62.20;;;9.31;63.67;101242.25;12249296;19;20047;-86
2023/01/10 08:53:20;;;;;;;4.53;3.38;;;10.90;62.40;;;9.31;63.66;101240.50;12246327;19;20019;-85
2023/01/10 08:57:22;;;;;;;3.40;3.05;;;10.70;62.20;;;9.45;63.62;101257.31;12247369;19;20010;-84
2023/01/10 09:01:23;;;;;;;6.55;3.90;;;10.70;62.10;;;9.42;63.55;101258.28;12247132;19;20413;-84
2023/01/10 09:05:25;;;;;;;5.80;2.97;;;10.70;62.10;;;9.48;63.44;101265.03;12246480;19;20010;-84
2023/01/10 09:09:27;;;;;;;5.57;3.65;;;10.70;62.10;;;9.53;63.65;101287.41;12248606;19;20022;-84
2023/01/10 09:13:29;;;;;;;6.68;2.95;;;10.70;62.00;;;9.56;63.65;101298.59;12247193;19;20019;-83
2023/01/10 09:17:31;;;;;;;6.72;3.22;;;10.70;62.00;;;9.45;63.60;101291.19;12247147;19;20017;-84
2023/01/10 09:21:33;;;;;;;5.63;3.38;;;10.80;62.10;;;9.56;63.50;101314.22;12246360;19;20014;-83
2023/01/10 09:25:36;;;;;;;4.13;3.17;;;10.80;62.00;;;9.56;63.52;101322.03;12243410;19;20047;-84
2023/01/10 09:29:38;;;;;;;5.22;3.03;;;10.80;62.10;;;9.54;63.44;101311.69;12247966;19;20014;-84
2023/01/10 09:33:43;;;;;;;4.65;3.17;;;10.80;62.00;;;9.51;63.68;101309.22;12243463;19;20097;-84
2023/01/10 09:37:45;;;;;;;4.80;3.20;;;10.80;62.20;;;9.54;63.68;101309.09;12247535;19;20011;-83
2023/01/10 09:42:43;;;;;;;3.72;2.63;;;10.80;62.10;;;9.57;63.75;101311.56;12243188;19;20014;-84
2023/01/10 09:47:32;;;;;;;5.88;3.10;;;10.90;62.10;;;9.51;63.69;101299.63;12246967;19;20414;-84
2023/01/10 09:51:47;;;;;;;7.57;3.35;;;10.90;62.10;;;9.56;63.70;101296.84;12244249;19;20044;-84
2023/01/10 09:55:58;;;;;;;;;;;10.90;62.20;;;9.59;63.66;101312.34;12243027;19;20031;-83
2023/01/10 10:00:01;;;;;;;3.58;2.45;;;10.90;62.20;;;9.65;63.52;101316.47;12245574;19;19944;-84
2023/01/10 10:04:32;;;;;;;4.93;3.05;;;11.00;62.10;;;9.79;63.52;101341.97;12242000;19;20014;-83
2023/01/10 10:08:35;;;;;;;6.03;3.00;;;11.00;62.20;;;9.73;63.70;101315.22;12245752;19;20003;-83
2023/01/10 10:12:56;;;;;;;5.25;3.10;;;11.00;61.90;;;9.83;63.55;101341.78;12243606;19;20010;-83
2023/01/10 10:17:16;;;;;;;4.25;2.55;;;11.10;61.50;;;9.83;63.58;101343.50;12249135;19;20540;-83
2023/01/10 10:21:50;;;;;;;4.65;2.83;;;11.10;61.40;;;9.82;63.54;101336.63;12245543;19;20367;-83
2023/01/10 10:26:31;;;;;;;2.95;2.65;;;11.10;61.70;;;9.89;63.55;101356.31;12244226;19;20078;-83
2023/01/10 10:31:01;;;;;;;3.80;2.42;;;11.10;61.60;;;9.82;63.61;101352.25;12244015;19;20082;-83
2023/01/10 10:35:13;;;;;;;3.35;2.80;;;11.20;61.80;;;9.95;63.58;101363.88;12241041;19;20010;-83
2023/01/10 10:39:21;;;;;;;2.83;2.38;;;11.20;61.60;;;9.84;63.50;101337.41;12243465;19;20074;-83
2023/01/10 10:43:31;;;;;;;2.60;2.05;;;11.20;62.30;;;10.00;63.57;101356.72;12240821;19;20026;-83
2023/01/10 10:47:38;;;;;;;3.63;2.35;;;11.20;61.50;;;10.08;63.63;101366.81;12242688;19;20026;-85
2023/01/10 10:51:53;;;;;;;4.72;2.15;;;11.30;61.50;;;9.93;63.57;101352.66;12240993;19;20018;-83
2023/01/10 10:55:57;;;;;;;3.70;2.45;;;11.30;61.10;;;10.07;63.61;101371.19;12250795;19;20367;-83
2023/01/10 11:00:01;;;;;;;8.07;2.85;;;11.30;61.20;;;10.09;63.63;101371.13;12255040;19;20420;-83
2023/01/10 11:04:12;;;;;;;2.83;2.30;;;11.40;61.30;;;10.14;63.58;101395.25;12252109;19;20010;-84
2023/01/10 11:08:18;;;;;;;6.00;2.40;;;11.40;61.20;;;9.86;63.42;101348.63;12254371;19;20247;-83
2023/01/10 11:12:29;;;;;;;5.03;2.45;;;11.40;61.20;;;10.08;63.40;101396.38;12253149;19;20039;-84
2023/01/10 11:16:32;;;;;;;5.40;2.97;;;11.40;61.10;;;10.19;63.70;101412.41;12249140;19;20363;-83
2023/01/10 11:20:35;;;;;;;5.60;2.25;;;11.40;61.10;;;10.08;63.55;101390.31;12254557;19;20353;-83
2023/01/10 11:24:55;;;;;;;5.43;2.50;;;11.50;61.10;;;10.19;63.35;101407.19;12248845;19;20014;-83
2023/01/10 11:29:12;;;;;;;6.68;2.22;;;11.50;60.90;;;10.17;63.48;101401.19;12253176;19;20025;-82
2023/01/10 11:33:34;;;;;;;3.67;2.63;;;11.40;60.60;;;10.12;63.44;101390.09;12249109;19;20018;-83
2023/01/10 11:37:36;;;;;;;3.80;2.42;;;11.40;60.40;;;10.21;63.32;101394.09;12251887;19;20023;-83
2023/01/10 11:41:38;;;;;;;5.20;2.10;;;11.50;60.60;;;10.24;63.50;101387.91;12253150;19;20022;-84
2023/01/10 11:45:42;;;;;;;2.22;2.03;;;11.50;60.70;;;10.19;63.56;101391.53;12251575;19;20014;-83
2023/01/10 11:49:45;;;;;;;4.70;1.98;;;11.50;60.60;;;10.29;63.42;101401.59;12253042;19;20080;-85
2023/01/10 11:53:59;;;;;;;4.40;2.38;;;11.50;60.50;;;10.23;63.71;101386.19;12251929;19;20025;-84
2023/01/10 11:58:13;;;;;;;3.75;2.20;;;11.50;60.50;;;10.33;63.44;101411.00;12253912;19;20015;-84
2023/01/10 12:02:41;;;;;;;3.70;1.92;;;11.50;60.50;;;10.35;63.38;101415.25;12252566;19;20014;-84
2023/01/10 12:06:50;;;;;;;2.65;1.92;;;11.60;60.40;;;10.34;63.18;101402.25;12248336;19;20018;-84
2023/01/10 12:11:04;;;;;;;3.15;1.90;;;11.60;60.30;;;10.42;63.25;101415.81;12250188;19;20139;-84
2023/01/10 12:15:30;;;;;;;2.58;1.90;;;11.70;60.30;;;10.41;63.20;101406.31;12247809;19;20082;-84
2023/01/10 12:19:32;;;;;;;4.32;2.60;;;11.70;60.00;;;10.45;63.23;101405.28;12250368;19;20022;-84
2023/01/10 12:23:40;;;;;;;3.13;1.90;;;11.70;60.10;;;10.48;63.49;101405.13;12247691;19;20007;-86
2023/01/10 12:27:43;;;;;;;6.18;2.22;;;11.70;59.90;;;10.54;63.36;101411.84;12248913;19;20014;-85
2023/01/10 12:31:45;;;;;;;4.90;1.90;;;11.80;59.90;;;10.36;63.37;101369.94;12251294;19;20027;-85
2023/01/10 12:36:31;;;;;;;4.40;1.67;;;11.80;59.80;;;10.60;63.02;101424.63;12246356;19;20019;-85
2023/01/10 12:40:53;;;;;;;6.60;2.08;;;11.90;59.60;;;10.54;63.02;101409.25;12249935;19;20054;-85
2023/01/10 12:45:13;;;;;;;3.08;1.63;;;11.90;59.50;;;10.63;63.05;101421.88;12246184;19;20018;-85
2023/01/10 12:49:29;;;;;;;7.55;2.35;;;11.90;59.50;;;10.72;62.98;101441.50;12248676;19;20011;-86
2023/01/10 12:53:39;;;;;;;4.18;1.80;;;12.00;59.60;;;10.68;63.00;101432.13;12247148;19;20025;-85
2023/01/10 12:57:47;;;;;;;7.68;1.58;;;12.00;59.70;;;10.53;63.18;101413.63;12247846;19;20014;-85
2023/01/10 13:01:55;;;;;;;2.67;1.67;;;12.00;59.70;;;10.70;63.05;101438.16;12247222;19;20552;-84
2023/01/10 13:05:58;;;;;;;4.72;1.85;;;12.00;59.60;;;10.84;63.17;101454.03;12247704;19;20015;-85
2023/01/10 13:10:03;;;;;;;3.88;1.63;;;12.20;59.70;;;10.81;63.07;101443.72;12247739;19;20039;-85
2023/01/10 13:14:13;;;;;;;4.70;1.77;;;12.10;59.70;;;10.84;63.04;101457.50;12244657;19;20014;-85
2023/01/10 13:18:24;;;;;;;3.45;1.52;;;12.10;59.50;;;10.92;62.88;101470.22;12245869;19;20015;-85
2023/01/10 13:22:35;;;;;;;5.38;1.75;;;12.10;59.40;;;10.88;62.88;101452.97;12248751;19;20327;-85
2023/01/10 13:26:51;;;;;;;3.63;1.60;;;12.20;59.60;;;10.95;62.91;101472.69;12246213;19;20025;-85
2023/01/10 13:31:03;;;;;;;3.88;1.63;;;12.20;59.50;;;10.93;62.77;101474.53;12248124;19;20343;-84
2023/01/10 13:35:18;;;;;;;3.92;1.42;;;12.20;59.30;;;10.95;62.95;101492.75;12244517;19;20014;-86
2023/01/10 13:39:31;;;;;;;2.53;1.60;;;12.20;59.20;;;10.92;62.87;101485.91;12247664;19;20018;-85
2023/01/10 13:43:35;;;;;;;5.28;2.00;;;12.20;59.20;;;10.98;62.81;101480.41;12243959;19;21498;-85
2023/01/10 13:47:40;;;;;;;6.15;2.03;;;12.20;59.00;;;10.96;62.81;101478.78;12247613;19;20028;-85
2023/01/10 13:52:28;;;;;;;2.60;1.58;;;12.20;59.10;;;10.94;62.82;101493.69;12246736;19;20358;-85
2023/01/10 13:56:41;;;;;;;4.45;1.58;;;12.20;59.10;;;10.89;62.81;101483.44;12244750;19;20021;-84
2023/01/10 14:05:18;;;;;;;6.53;1.85;;;12.10;59.10;;;10.87;62.69;101489.63;12241583;19;20015;-83
2023/01/10 14:09:19;;;;;;;3.17;1.65;;;12.20;59.10;;;10.94;62.72;101511.97;12244026;19;20115;-84
2023/01/10 14:13:22;;;;;;;6.30;1.63;;;12.20;59.00;;;10.89;62.60;101501.72;12243891;19;20081;-84
2023/01/10 14:17:33;;;;;;;5.72;1.85;;;12.20;58.80;;;10.83;62.54;101494.16;12244326;19;20015;-84
2023/01/10 14:21:41;;;;;;;2.58;1.60;;;12.10;58.80;;;10.85;62.65;101495.78;12243295;19;20014;-83
2023/01/10 14:25:50;;;;;;;4.38;1.85;;;12.10;58.90;;;10.87;62.52;101485.25;12242836;19;20085;-84
2023/01/10 14:30:00;;;;;;;3.13;1.70;;;12.10;58.80;;;10.84;62.59;101488.84;12252258;19;20018;-83
2023/01/10 14:34:04;;;;;;;3.05;1.73;;;12.10;58.80;;;10.89;62.56;101488.66;12252983;19;20022;-84
2023/01/10 14:38:13;;;;;;;7.00;2.17;;;12.10;58.90;;;10.80;62.63;101475.97;12256962;19;20047;-83
2023/01/10 14:42:17;;;;;;;6.38;1.77;;;12.10;58.90;;;10.83;62.37;101481.94;12256609;19;20043;-83
2023/01/10 14:46:30;;;;;;;2.72;1.80;;;12.10;58.80;;;10.89;62.51;101499.13;12255167;19;20014;-83
2023/01/10 14:50:32;;;;;;;2.67;1.77;;;12.10;58.80;;;10.86;62.39;101494.03;12255820;19;20465;-84
2023/01/10 14:54:34;;;;;;;3.13;1.50;;;12.00;58.80;;;10.88;62.66;101491.31;12251153;19;20098;-83
2023/01/10 14:58:35;;;;;;;4.00;1.60;;;12.10;58.90;;;10.53;62.31;101437.13;12257666;19;20011;-84
2023/01/10 15:02:42;;;;;;;5.35;1.90;;;12.00;58.90;;;10.78;62.17;101486.53;12253810;19;20015;-83
2023/01/10 15:07:11;;;;;;;3.92;1.65;;;12.00;58.80;;;10.76;62.33;101487.50;12255423;19;20082;-83
2023/01/10 15:11:14;;;;;;;3.30;1.60;;;12.00;58.80;;;10.74;62.36;101494.53;12255733;19;20007;-83
2023/01/10 15:15:21;;;;;;;2.42;1.58;;;12.00;58.90;;;10.68;62.26;101497.44;12248523;19;20014;-83
2023/01/10 15:19:24;;;;;;;2.40;1.60;;;11.90;58.80;;;10.63;62.16;101505.47;12255938;19;20018;-83
2023/01/10 15:23:38;;;;;;;2.47;1.60;;;11.90;58.80;;;10.72;62.36;101528.59;12256569;19;20042;-88
2023/01/10 15:27:49;;;;;;;3.15;1.75;;;11.90;58.80;;;10.54;62.43;101505.88;12253910;19;20387;-88
2023/01/10 15:32:07;;;;;;;3.85;2.03;;;11.80;58.80;;;10.66;62.19;101531.44;12254747;19;20017;-87
2023/01/10 15:36:16;;;;;;;3.85;1.60;;;11.90;58.80;;;10.64;62.15;101533.28;12250471;19;20505;-88
2023/01/10 15:40:30;;;;;;;2.00;1.45;;;11.80;58.70;;;10.55;62.18;101529.28;12254800;19;20035;-87
2023/01/10 15:44:37;;;;;;;4.43;2.08;;;11.80;58.80;;;10.58;62.29;101537.00;12249676;19;20299;-87
2023/01/10 15:48:42;;;;;;;4.22;1.77;;;11.80;58.80;;;10.60;62.20;101535.16;12254207;19;20006;-88
2023/01/10 15:53:03;;;;;;;2.97;1.85;;;11.80;58.70;;;10.55;62.18;101536.28;12246029;19;20011;-86
2023/01/10 15:57:22;;;;;;;3.33;1.85;;;11.70;58.70;;;10.40;62.05;101504.69;12253648;19;20035;-87
2023/01/10 16:01:25;;;;;;;3.00;1.95;;;11.70;58.70;;;10.49;62.02;101519.09;12251094;19;20022;-86
2023/01/10 16:05:26;;;;;;;2.47;2.28;;;11.70;58.70;;;10.51;62.36;101532.13;12250274;19;20026;-87
2023/01/10 16:09:28;;;;;;;2.78;2.28;;;11.70;58.70;;;10.49;62.25;101539.16;12250211;19;20023;-88
2023/01/10 16:13:31;;;;;;;4.28;2.45;;;11.70;58.70;;;10.51;62.04;101542.56;12249330;19;20025;-87
2023/01/10 16:17:33;;;;;;;3.63;2.30;;;11.70;58.70;;;10.40;61.94;101525.56;12252924;19;20015;-86
2023/01/10 16:21:43;;;;;;;2.22;1.90;;;11.60;58.60;;;10.30;62.07;101524.25;12252600;19;20014;-87
2023/01/10 16:25:53;;;;;;;2.67;1.88;;;11.60;58.60;;;10.28;62.01;101517.38;12249431;19;20066;-87
2023/01/10 16:29:55;;;;;;;3.88;1.80;;;11.60;58.50;;;10.30;62.07;101518.19;12250864;19;20078;-86
2023/01/10 16:33:56;;;;;;;4.68;1.77;;;11.50;58.50;;;10.20;61.92;101502.84;12247448;19;20031;-87
2023/01/10 16:37:59;;;;;;;2.65;1.42;;;11.50;58.60;;;10.11;62.05;101494.56;12251647;19;20014;-85
2023/01/10 16:46:21;;;;;;;1.60;1.50;;;11.50;58.60;;;10.29;62.10;101530.38;12250313;19;20022;-86
2023/01/10 16:50:23;;;;;;;2.42;1.73;;;11.50;58.60;;;10.27;61.96;101528.72;12252854;19;20047;-86
2023/01/10 16:54:25;;;;;;;4.97;2.58;;;11.40;58.60;;;10.14;62.02;101516.16;12248124;19;20011;-86
2023/01/10 16:58:26;;;;;;;3.15;1.88;;;11.40;58.60;;;10.26;61.91;101538.31;12252628;19;20010;-86
2023/01/10 17:02:28;;;;;;;3.40;1.90;;;11.40;58.70;;;10.21;61.86;101535.03;12242160;19;20033;-85
2023/01/10 17:06:30;;;;;;;4.13;1.90;;;11.30;58.70;;;10.12;62.01;101531.03;12249557;19;20018;-85
2023/01/10 17:10:35;;;;;;;4.20;1.70;;;11.30;58.80;;;10.08;62.08;101519.03;12251608;19;20022;-85
2023/01/10 17:14:37;;;;;;;6.00;2.00;;;11.40;58.70;;;9.98;61.92;101492.44;12249567;19;20017;-86
2023/01/10 17:18:39;;;;;;;4.05;1.95;;;11.30;58.70;;;9.92;61.98;101476.19;12248986;19;20003;-85
2023/01/10 17:22:42;;;;;;;2.92;1.77;;;11.30;58.60;;;10.10;61.78;101519.81;12246197;19;20014;-85